Time;durP1;ratioP1;P1;durP2;ratioP2;P2;SDS_P1;SDS_P2;PMS_P1;PMS_P2;Temp;Humidity;BMP_temperature;BMP_pressure;BME280_temperature;BME280_humidity;BME280_pressure;Samples;Min_cycle;Max_cycle;Signal;HPM_P1;HPM_P2
2021/08/26 00:07:50;;;;;;;3.58;3.00;;;24.40;42.10;;;;;;5051742;28;20196;-46
2021/08/26 00:10:19;;;;;;;3.30;2.83;;;24.40;42.20;;;;;;5053287;28;20225;-46
2021/08/26 00:12:46;;;;;;;3.17;2.88;;;24.40;42.10;;;;;;5054123;28;20724;-46
2021/08/26 00:15:12;;;;;;;4.38;2.72;;;24.40;42.10;;;;;;5053243;28;20662;-46
2021/08/26 00:17:40;;;;;;;2.90;2.50;;;24.40;42.10;;;;;;5053970;28;20661;-45
2021/08/26 00:20:06;;;;;;;3.97;2.95;;;24.40;42.10;;;;;;5053401;28;20230;-48
2021/08/26 00:22:33;;;;;;;3.80;3.10;;;24.40;42.10;;;;;;5053991;28;20205;-48
2021/08/26 00:25:00;;;;;;;3.75;3.13;;;24.40;42.20;;;;;;5053151;28;20290;-47
2021/08/26 00:27:26;;;;;;;2.95;2.65;;;24.40;42.20;;;;;;5054084;28;20216;-48
2021/08/26 00:29:53;;;;;;;3.85;2.72;;;24.40;42.20;;;;;;5052704;28;20230;-46
2021/08/26 00:32:19;;;;;;;2.60;2.40;;;24.40;42.20;;;;;;5053131;28;20202;-47
2021/08/26 00:34:46;;;;;;;3.40;2.83;;;24.30;42.10;;;;;;5039926;28;20212;-47
2021/08/26 00:37:12;;;;;;;3.60;2.53;;;24.40;42.20;;;;;;5052531;28;20200;-46
2021/08/26 00:39:38;;;;;;;5.40;3.40;;;24.40;42.20;;;;;;5053165;28;20200;-48
2021/08/26 00:42:05;;;;;;;3.05;2.70;;;24.40;42.20;;;;;;5053216;28;20220;-46
2021/08/26 00:44:31;;;;;;;3.83;2.50;;;24.40;42.30;;;;;;5053048;28;20205;-46
2021/08/26 00:46:58;;;;;;;4.55;3.00;;;24.40;42.30;;;;;;5053329;28;20197;-46
2021/08/26 00:49:24;;;;;;;3.20;2.80;;;24.40;42.30;;;;;;5052546;28;20236;-47
2021/08/26 00:51:51;;;;;;;3.40;3.05;;;24.40;42.30;;;;;;5052664;28;20204;-46
2021/08/26 00:54:17;;;;;;;4.05;2.67;;;24.30;42.20;;;;;;5055256;28;20259;-47
2021/08/26 00:56:44;;;;;;;2.75;2.47;;;24.40;42.30;;;;;;5052430;28;20200;-48
2021/08/26 00:59:10;;;;;;;3.50;2.55;;;24.40;43.00;;;;;;5053348;28;20300;-48
2021/08/26 01:01:37;;;;;;;3.65;2.58;;;24.30;42.20;;;;;;5052586;28;20224;-47
2021/08/26 01:04:04;;;;;;;4.43;2.80;;;24.40;42.30;;;;;;5053099;28;20198;-50
2021/08/26 01:06:30;;;;;;;3.40;2.65;;;24.30;42.20;;;;;;5052549;28;20202;-47
2021/08/26 01:08:57;;;;;;;3.63;2.95;;;24.40;42.30;;;;;;5052934;28;20209;-48
2021/08/26 01:11:23;;;;;;;3.55;2.60;;;24.40;42.30;;;;;;5052166;28;20220;-49
2021/08/26 01:13:51;;;;;;;3.92;2.95;;;24.30;42.30;;;;;;5053086;28;20263;-48
2021/08/26 01:16:17;;;;;;;3.45;2.50;;;24.30;42.30;;;;;;5052616;28;20658;-48
2021/08/26 01:18:43;;;;;;;4.22;3.08;;;24.30;42.30;;;;;;5052564;28;20684;-48
2021/08/26 01:21:10;;;;;;;2.63;2.40;;;24.30;42.30;;;;;;5051887;28;20724;-48
2021/08/26 01:23:36;;;;;;;3.05;2.75;;;24.30;42.30;;;;;;5052541;28;20826;-48
2021/08/26 01:26:03;;;;;;;3.00;2.70;;;24.40;42.40;;;;;;5052491;28;20673;-47
2021/08/26 01:28:29;;;;;;;4.00;2.40;;;24.40;42.30;;;;;;5052092;28;20700;-47
2021/08/26 01:30:56;;;;;;;3.65;2.67;;;24.30;42.30;;;;;;5051564;28;20690;-48
2021/08/26 01:33:22;;;;;;;3.63;2.70;;;24.40;42.30;;;;;;5052599;28;20212;-47
2021/08/26 01:35:49;;;;;;;3.47;2.60;;;24.30;42.30;;;;;;5051933;28;20643;-48
2021/08/26 01:38:15;;;;;;;2.70;2.45;;;24.30;42.30;;;;;;5052274;28;20818;-48
2021/08/26 01:40:41;;;;;;;3.10;2.78;;;24.30;42.30;;;;;;5050814;28;20214;-51
2021/08/26 01:43:08;;;;;;;2.70;2.50;;;24.40;42.50;;;;;;5051991;28;20209;-50
2021/08/26 01:45:34;;;;;;;3.50;2.35;;;24.30;42.50;;;;;;5052152;28;20202;-47
2021/08/26 01:48:01;;;;;;;3.35;2.55;;;24.30;42.50;;;;;;5051927;28;20228;-48
2021/08/26 01:50:28;;;;;;;2.60;2.40;;;24.40;42.60;;;;;;5051738;28;20235;-50
2021/08/26 01:52:55;;;;;;;5.18;2.78;;;24.40;42.60;;;;;;5051993;28;20293;-48
2021/08/26 01:55:21;;;;;;;3.13;2.30;;;24.40;42.70;;;;;;5050874;28;20198;-48
2021/08/26 01:57:48;;;;;;;4.15;3.03;;;24.40;42.70;;;;;;5052043;28;20284;-48
2021/08/26 02:00:14;;;;;;;2.85;2.28;;;24.30;42.60;;;;;;5050981;28;20236;-50
2021/08/26 02:02:41;;;;;;;4.10;2.85;;;24.30;42.60;;;;;;5050987;28;20202;-47
2021/08/26 02:05:07;;;;;;;3.50;2.28;;;24.40;42.70;;;;;;5051569;28;20202;-48
2021/08/26 02:07:33;;;;;;;2.95;2.65;;;24.30;42.60;;;;;;5051318;28;20200;-47
2021/08/26 02:10:00;;;;;;;2.55;2.30;;;24.30;42.60;;;;;;5051154;28;20222;-47
2021/08/26 02:12:26;;;;;;;3.00;2.70;;;24.30;42.70;;;;;;5051270;28;20198;-48
2021/08/26 02:14:53;;;;;;;3.22;2.80;;;24.40;42.70;;;;;;5051797;28;20228;-50
2021/08/26 02:17:19;;;;;;;3.05;2.55;;;24.30;42.70;;;;;;5050278;28;20229;-47
2021/08/26 02:19:46;;;;;;;3.15;2.45;;;24.30;42.60;;;;;;5050400;28;20223;-47
2021/08/26 02:22:12;;;;;;;3.67;2.83;;;24.30;42.70;;;;;;5051892;28;20277;-48
2021/08/26 02:24:38;;;;;;;2.67;2.28;;;24.30;42.70;;;;;;5051870;28;20197;-50
2021/08/26 02:27:05;;;;;;;2.65;2.45;;;24.30;42.70;;;;;;5051443;28;20206;-48
2021/08/26 02:29:31;;;;;;;2.65;2.45;;;24.30;42.70;;;;;;5050843;28;20229;-47
2021/08/26 02:31:58;;;;;;;2.75;2.33;;;24.30;42.70;;;;;;5050942;28;20292;-50
2021/08/26 02:34:24;;;;;;;2.47;2.25;;;24.30;42.60;;;;;;5047660;28;20201;-47
2021/08/26 02:36:51;;;;;;;2.60;2.33;;;24.30;42.60;;;;;;5049614;28;20205;-50
2021/08/26 02:39:17;;;;;;;2.50;2.28;;;24.30;42.60;;;;;;5050944;28;20227;-50
2021/08/26 02:41:43;;;;;;;3.13;2.60;;;24.40;42.70;;;;;;5050896;28;20210;-48
2021/08/26 02:44:10;;;;;;;3.33;2.60;;;24.30;42.60;;;;;;5052453;28;20197;-51
2021/08/26 02:46:36;;;;;;;2.30;2.10;;;24.30;42.60;;;;;;5056423;28;20201;-48
2021/08/26 02:49:03;;;;;;;2.65;2.30;;;24.30;42.60;;;;;;5051268;28;20204;-50
2021/08/26 02:51:29;;;;;;;3.05;2.55;;;24.30;42.70;;;;;;5050473;28;20659;-51
2021/08/26 02:53:56;;;;;;;2.72;2.53;;;24.30;42.60;;;;;;5051165;28;20227;-47
2021/08/26 02:56:22;;;;;;;3.17;2.53;;;24.30;42.60;;;;;;5050622;28;20237;-50
2021/08/26 02:58:49;;;;;;;2.80;2.50;;;24.30;42.60;;;;;;5050525;28;20686;-47
2021/08/26 03:01:15;;;;;;;3.33;2.67;;;24.30;42.60;;;;;;5050664;28;20212;-49
2021/08/26 03:03:42;;;;;;;2.90;2.40;;;24.30;42.70;;;;;;5051167;28;20279;-49
2021/08/26 03:06:08;;;;;;;3.17;2.50;;;24.30;42.60;;;;;;5050855;28;20287;-50
2021/08/26 03:08:34;;;;;;;2.47;2.28;;;24.30;42.70;;;;;;5049713;28;20237;-47
2021/08/26 03:11:01;;;;;;;3.15;2.63;;;24.30;42.70;;;;;;5049572;28;20328;-52
2021/08/26 03:13:27;;;;;;;2.30;2.10;;;24.30;42.70;;;;;;5050355;28;20797;-48
2021/08/26 03:15:54;;;;;;;2.75;2.47;;;24.30;42.70;;;;;;5050520;28;20300;-49
2021/08/26 03:18:20;;;;;;;2.20;2.00;;;24.30;42.70;;;;;;5050965;28;20248;-51
2021/08/26 03:20:47;;;;;;;2.60;2.25;;;24.30;42.60;;;;;;5049971;28;20301;-48
2021/08/26 03:23:13;;;;;;;2.60;2.40;;;24.30;42.70;;;;;;5051027;28;20233;-50
2021/08/26 03:25:40;;;;;;;2.97;2.67;;;24.30;42.70;;;;;;5050651;28;20236;-49
2021/08/26 03:28:06;;;;;;;2.70;2.25;;;24.30;42.70;;;;;;5050636;28;20280;-52
2021/08/26 03:30:33;;;;;;;2.90;2.40;;;24.30;42.80;;;;;;5049705;28;20239;-51
2021/08/26 03:32:59;;;;;;;3.83;2.25;;;24.30;42.70;;;;;;5050627;28;20743;-51
2021/08/26 03:35:26;;;;;;;3.13;2.22;;;24.30;42.70;;;;;;5050987;28;20233;-49
2021/08/26 03:37:52;;;;;;;2.85;2.63;;;24.30;42.80;;;;;;5050518;28;20380;-51
2021/08/26 03:40:18;;;;;;;3.17;2.38;;;24.30;42.80;;;;;;5049979;28;20222;-52
2021/08/26 03:42:45;;;;;;;2.50;2.22;;;24.30;42.80;;;;;;5050176;28;20206;-51
2021/08/26 03:45:11;;;;;;;2.35;2.15;;;24.30;42.80;;;;;;5050684;28;20714;-49
2021/08/26 03:47:38;;;;;;;3.13;2.47;;;24.30;42.80;;;;;;5049913;28;20300;-52
2021/08/26 03:50:04;;;;;;;4.38;2.42;;;24.30;42.80;;;;;;5049895;28;20305;-51
2021/08/26 03:52:31;;;;;;;5.07;2.95;;;24.30;42.80;;;;;;5050610;28;20194;-50
2021/08/26 03:54:57;;;;;;;2.45;2.25;;;24.30;42.80;;;;;;5062783;28;20193;-49
2021/08/26 03:57:24;;;;;;;2.60;2.40;;;24.30;42.80;;;;;;5050149;28;20204;-53
2021/08/26 03:59:50;;;;;;;2.55;2.28;;;24.30;42.80;;;;;;5049556;28;20717;-53
2021/08/26 04:02:16;;;;;;;2.72;2.20;;;24.30;42.80;;;;;;5050560;28;20308;-53
2021/08/26 04:04:43;;;;;;;3.13;2.53;;;24.30;42.80;;;;;;5050231;28;20201;-52
2021/08/26 04:07:09;;;;;;;2.80;2.60;;;24.30;42.90;;;;;;5049701;28;20202;-52
2021/08/26 04:09:36;;;;;;;2.45;2.20;;;24.30;42.90;;;;;;5048776;28;20217;-50
2021/08/26 04:12:02;;;;;;;3.55;2.35;;;24.30;42.90;;;;;;5048759;28;20206;-48
2021/08/26 04:14:29;;;;;;;3.22;2.50;;;24.30;42.80;;;;;;5050424;28;20297;-54
2021/08/26 04:16:55;;;;;;;2.38;2.10;;;24.30;42.90;;;;;;5050533;28;20248;-52
2021/08/26 04:19:22;;;;;;;2.75;2.30;;;24.30;42.90;;;;;;5049697;28;20308;-50
2021/08/26 04:21:48;;;;;;;2.50;2.22;;;24.30;42.90;;;;;;5049903;28;20212;-50
2021/08/26 04:24:15;;;;;;;2.92;2.47;;;24.30;42.90;;;;;;5050149;28;20198;-51
2021/08/26 04:26:41;;;;;;;2.15;1.95;;;24.30;42.90;;;;;;5051962;28;20646;-50
2021/08/26 04:29:08;;;;;;;2.88;2.47;;;24.30;42.80;;;;;;5053955;28;20304;-48
2021/08/26 04:31:35;;;;;;;2.88;2.42;;;24.30;42.90;;;;;;5052105;28;20234;-51
2021/08/26 04:34:01;;;;;;;2.92;2.40;;;24.30;42.90;;;;;;5052815;28;20247;-49
2021/08/26 04:36:28;;;;;;;2.60;2.25;;;24.30;42.90;;;;;;5041870;28;20294;-50
2021/08/26 04:38:54;;;;;;;2.65;2.28;;;24.30;42.90;;;;;;5052581;28;20218;-48
2021/08/26 04:41:21;;;;;;;2.40;2.20;;;24.30;42.90;;;;;;5052953;28;20208;-49
2021/08/26 04:43:47;;;;;;;4.05;2.50;;;24.30;42.90;;;;;;5053589;28;20206;-52
2021/08/26 04:46:14;;;;;;;2.58;2.38;;;24.30;42.90;;;;;;5053479;28;20206;-51
2021/08/26 04:48:40;;;;;;;2.70;2.40;;;24.30;43.00;;;;;;5053063;28;20642;-50
2021/08/26 04:51:07;;;;;;;2.45;2.13;;;24.30;43.00;;;;;;5051151;28;20234;-47
2021/08/26 04:53:33;;;;;;;3.38;2.47;;;24.30;43.00;;;;;;5052649;28;20204;-50
2021/08/26 04:56:00;;;;;;;2.55;2.35;;;24.30;43.00;;;;;;5053027;28;20292;-49
2021/08/26 04:58:26;;;;;;;2.13;1.92;;;24.30;43.00;;;;;;5052728;28;20673;-49
2021/08/26 05:00:53;;;;;;;2.78;2.30;;;24.30;43.00;;;;;;5058366;28;20657;-51
2021/08/26 05:03:20;;;;;;;3.05;2.50;;;24.30;42.90;;;;;;5059916;28;20279;-49
2021/08/26 05:05:46;;;;;;;5.60;2.45;;;24.30;43.20;;;;;;5052100;28;20194;-52
2021/08/26 05:08:12;;;;;;;2.65;2.15;;;24.30;43.20;;;;;;5060584;28;20197;-51
2021/08/26 05:10:39;;;;;;;2.88;2.25;;;24.30;43.20;;;;;;5046789;28;20240;-49
2021/08/26 05:13:05;;;;;;;5.78;2.13;;;24.30;43.20;;;;;;5051465;28;20284;-50
2021/08/26 05:15:32;;;;;;;2.92;1.98;;;24.30;43.20;;;;;;5051964;28;20205;-49
2021/08/26 05:17:58;;;;;;;2.92;2.30;;;24.30;43.20;;;;;;5050083;28;20200;-51
2021/08/26 05:20:25;;;;;;;5.03;2.47;;;24.40;43.40;;;;;;5052116;28;20225;-48
2021/08/26 05:22:51;;;;;;;6.95;4.38;;;24.30;42.00;;;;;;5050666;28;20225;-50
2021/08/26 05:25:18;;;;;;;6.72;5.20;;;22.90;39.50;;;;;;5057217;28;20211;-53
2021/08/26 05:27:44;;;;;;;5.03;4.45;;;21.30;40.50;;;;;;5063740;28;20258;-52
2021/08/26 05:30:11;;;;;;;6.18;3.92;;;21.80;40.20;;;;;;5051995;28;20224;-48
2021/08/26 05:32:37;;;;;;;7.90;3.72;;;22.60;40.50;;;;;;5046024;28;20220;-49
2021/08/26 05:35:04;;;;;;;4.43;3.50;;;23.10;40.90;;;;;;5052195;28;20216;-48
2021/08/26 05:37:30;;;;;;;5.40;3.25;;;23.40;41.00;;;;;;5056913;28;20495;-48
2021/08/26 05:39:57;;;;;;;5.65;3.70;;;23.50;41.10;;;;;;5052087;28;20228;-47
2021/08/26 05:42:24;;;;;;;5.43;3.85;;;23.70;41.60;;;;;;5047965;28;20213;-50
2021/08/26 05:44:50;;;;;;;3.95;3.40;;;23.70;41.50;;;;;;5050739;28;20205;-46
2021/08/26 05:47:16;;;;;;;4.65;3.38;;;23.80;41.70;;;;;;5056702;28;20197;-48
2021/08/26 05:49:43;;;;;;;4.55;3.83;;;23.80;41.70;;;;;;5059372;28;20303;-46
2021/08/26 05:52:09;;;;;;;5.75;3.65;;;23.80;41.90;;;;;;5051404;28;20636;-46
2021/08/26 05:54:36;;;;;;;5.80;3.67;;;23.90;42.00;;;;;;5051736;28;20335;-46
2021/08/26 05:57:03;;;;;;;6.70;3.92;;;23.90;42.10;;;;;;5048789;28;20206;-49
2021/08/26 05:59:29;;;;;;;4.93;3.60;;;23.90;41.40;;;;;;5044720;28;20295;-51
2021/08/26 06:01:56;;;;;;;3.67;3.20;;;24.00;41.30;;;;;;5051504;28;20241;-46
2021/08/26 06:04:22;;;;;;;4.47;3.58;;;24.00;41.50;;;;;;5051229;28;20284;-49
2021/08/26 06:06:49;;;;;;;4.50;3.58;;;24.00;41.80;;;;;;5055176;28;20197;-48
2021/08/26 06:09:15;;;;;;;3.95;3.17;;;24.00;41.30;;;;;;5064281;28;20223;-51
2021/08/26 06:11:42;;;;;;;4.75;3.13;;;24.00;41.20;;;;;;5057076;28;20247;-52
2021/08/26 06:14:09;;;;;;;4.82;3.60;;;24.00;41.40;;;;;;5051073;28;20281;-49
2021/08/26 06:16:35;;;;;;;4.95;3.50;;;24.00;41.80;;;;;;5051266;28;20210;-51
2021/08/26 06:19:02;;;;;;;3.47;3.08;;;24.10;41.70;;;;;;5050662;28;20229;-50
2021/08/26 06:21:28;;;;;;;5.03;3.10;;;24.10;41.50;;;;;;5045617;28;20198;-48
2021/08/26 06:23:54;;;;;;;5.03;3.53;;;24.10;42.10;;;;;;5052711;28;20204;-47
2021/08/26 06:26:21;;;;;;;4.18;2.80;;;24.20;41.80;;;;;;5058982;28;20198;-46
2021/08/26 06:28:47;;;;;;;4.68;2.97;;;24.20;41.60;;;;;;5050794;28;20310;-46
2021/08/26 06:31:14;;;;;;;6.28;3.65;;;24.20;41.50;;;;;;5050622;28;20229;-47
2021/08/26 06:33:40;;;;;;;3.83;3.33;;;24.20;41.40;;;;;;5050456;28;20202;-49
2021/08/26 06:36:07;;;;;;;4.03;3.00;;;24.20;41.50;;;;;;5056510;28;20201;-49
2021/08/26 06:38:33;;;;;;;4.50;4.05;;;24.20;42.00;;;;;;5050336;28;20222;-48
2021/08/26 06:41:00;;;;;;;5.38;3.70;;;23.90;40.30;;;;;;5054727;28;20204;-47
2021/08/26 06:43:26;;;;;;;4.88;3.50;;;23.90;40.40;;;;;;5050540;28;20216;-46
2021/08/26 06:45:52;;;;;;;5.05;3.88;;;23.90;40.60;;;;;;5051146;28;20194;-49
2021/08/26 06:48:19;;;;;;;4.80;4.30;;;23.90;39.30;;;;;;5050233;28;20222;-47
2021/08/26 06:50:45;;;;;;;9.23;4.75;;;23.20;38.10;;;;;;5050370;28;20236;-50
2021/08/26 06:53:12;;;;;;;6.60;4.78;;;22.90;38.60;;;;;;5064179;28;20216;-49
2021/08/26 06:55:38;;;;;;;7.45;4.30;;;22.80;38.70;;;;;;5046508;28;20208;-46
2021/08/26 06:58:05;;;;;;;4.57;4.00;;;22.80;39.30;;;;;;5050284;28;20202;-46
2021/08/26 07:00:31;;;;;;;4.75;3.58;;;23.10;39.20;;;;;;5046482;28;20194;-49
2021/08/26 07:02:57;;;;;;;3.97;3.58;;;23.40;39.70;;;;;;5049009;28;20202;-48
2021/08/26 07:05:24;;;;;;;5.65;3.85;;;23.60;39.60;;;;;;5051126;28;20206;-52
2021/08/26 07:07:50;;;;;;;4.38;3.90;;;23.70;39.70;;;;;;5050972;28;20208;-48
2021/08/26 07:10:17;;;;;;;4.07;3.40;;;23.70;39.40;;;;;;5050098;28;20202;-50
2021/08/26 07:12:43;;;;;;;4.82;3.72;;;23.70;39.40;;;;;;5050492;28;20240;-45
2021/08/26 07:15:10;;;;;;;4.05;3.22;;;23.80;39.60;;;;;;5050390;28;20666;-47
2021/08/26 07:17:37;;;;;;;4.63;3.40;;;23.90;39.70;;;;;;5050263;28;20560;-49
2021/08/26 07:20:03;;;;;;;6.00;4.15;;;23.90;40.00;;;;;;5059525;28;20220;-49
2021/08/26 07:22:30;;;;;;;4.00;3.60;;;23.90;39.70;;;;;;5061828;28;20239;-45
2021/08/26 07:24:56;;;;;;;4.82;3.40;;;23.90;39.80;;;;;;5059464;28;20206;-46
2021/08/26 07:27:23;;;;;;;4.30;3.72;;;24.00;40.10;;;;;;5050699;28;20239;-46
2021/08/26 07:29:49;;;;;;;5.72;3.80;;;24.00;40.20;;;;;;5059914;28;20216;-49
2021/08/26 07:32:16;;;;;;;6.35;3.70;;;24.00;40.00;;;;;;5052880;28;20232;-48
2021/08/26 07:34:42;;;;;;;4.10;3.30;;;24.00;40.20;;;;;;5051521;28;20198;-47
2021/08/26 07:37:08;;;;;;;3.58;3.25;;;24.00;40.50;;;;;;5051048;28;20198;-48
2021/08/26 07:39:35;;;;;;;5.68;3.60;;;24.00;40.60;;;;;;5057347;28;20231;-51
2021/08/26 07:42:01;;;;;;;4.85;3.50;;;24.10;40.60;;;;;;5049622;28;20216;-50
2021/08/26 07:44:28;;;;;;;6.22;3.70;;;24.10;40.60;;;;;;5056310;28;20204;-57
2021/08/26 07:46:54;;;;;;;4.85;3.45;;;24.10;40.60;;;;;;5052624;28;20197;-54
2021/08/26 07:49:21;;;;;;;4.10;3.35;;;24.10;40.60;;;;;;5050144;28;20233;-50
2021/08/26 07:51:47;;;;;;;6.40;3.65;;;24.20;40.60;;;;;;5052423;28;20225;-51
2021/08/26 07:54:13;;;;;;;8.63;5.10;;;24.10;40.30;;;;;;5049994;28;20212;-53
2021/08/26 07:56:40;;;;;;;5.18;3.88;;;24.00;40.00;;;;;;5050184;28;20224;-51
2021/08/26 07:59:06;;;;;;;4.75;3.90;;;24.00;40.10;;;;;;5052196;28;20231;-45
2021/08/26 08:01:33;;;;;;;5.50;3.75;;;24.00;40.00;;;;;;5051248;28;20197;-49
2021/08/26 08:03:59;;;;;;;4.65;3.80;;;24.10;40.10;;;;;;5055315;28;20217;-48
2021/08/26 08:06:26;;;;;;;4.95;3.83;;;24.10;40.00;;;;;;5072056;28;20215;-46
2021/08/26 08:08:52;;;;;;;5.50;3.63;;;24.10;40.10;;;;;;5054351;28;20218;-46
2021/08/26 08:11:18;;;;;;;6.25;4.00;;;24.20;40.50;;;;;;5074020;28;20225;-45
2021/08/26 08:13:45;;;;;;;4.90;3.90;;;24.20;40.30;;;;;;5056937;28;20211;-55
2021/08/26 08:16:11;;;;;;;6.63;3.78;;;24.20;40.30;;;;;;5073908;28;20208;-47
2021/08/26 08:18:38;;;;;;;7.78;3.90;;;24.20;40.20;;;;;;5058606;28;20222;-45
2021/08/26 08:21:04;;;;;;;6.20;4.28;;;24.20;40.70;;;;;;5053079;28;20206;-45
2021/08/26 08:23:31;;;;;;;4.53;3.88;;;24.20;40.70;;;;;;5068174;28;20201;-45
2021/08/26 08:25:57;;;;;;;6.82;4.57;;;24.20;40.70;;;;;;5062619;28;20202;-51
2021/08/26 08:28:24;;;;;;;7.60;5.22;;;24.20;40.40;;;;;;5064338;28;20236;-50
2021/08/26 08:30:50;;;;;;;7.85;4.80;;;24.20;40.10;;;;;;5060520;28;20198;-46
2021/08/26 08:33:16;;;;;;;8.05;4.93;;;24.20;39.20;;;;;;5054197;28;20206;-50
2021/08/26 08:35:43;;;;;;;8.88;5.43;;;24.20;39.40;;;;;;5053405;28;20212;-46
2021/08/26 08:38:09;;;;;;;10.73;5.30;;;24.20;39.30;;;;;;5054223;28;20226;-46
2021/08/26 08:40:36;;;;;;;7.78;5.18;;;24.10;39.50;;;;;;5065209;28;20209;-49
2021/08/26 08:43:02;;;;;;;7.28;5.97;;;24.10;39.30;;;;;;5065428;28;21887;-52
2021/08/26 08:45:29;;;;;;;8.55;5.20;;;24.00;39.10;;;;;;5075812;22;20235;-59
2021/08/26 08:47:56;;;;;;;9.73;5.90;;;24.00;39.10;;;;;;5065490;28;20300;-56
2021/08/26 08:50:22;;;;;;;6.68;4.75;;;23.90;39.00;;;;;;5073089;28;20204;-57
2021/08/26 08:52:48;;;;;;;6.97;5.22;;;23.90;39.10;;;;;;5064048;28;20224;-58
2021/08/26 08:55:16;;;;;;;7.45;5.00;;;23.90;39.40;;;;;;5070711;28;20201;-58
2021/08/26 08:57:43;;;;;;;5.95;5.10;;;24.00;39.20;;;;;;5059315;28;20224;-58
2021/08/26 09:00:09;;;;;;;9.73;5.82;;;23.90;38.90;;;;;;5072333;28;20240;-59
2021/08/26 09:02:36;;;;;;;8.05;5.97;;;23.90;39.00;;;;;;5072516;28;20292;-59
2021/08/26 09:05:02;;;;;;;9.77;5.90;;;24.00;39.10;;;;;;5067288;28;20201;-59
2021/08/26 09:07:29;;;;;;;7.85;5.80;;;23.90;39.00;;;;;;5072748;28;20197;-60
2021/08/26 09:09:55;;;;;;;10.05;6.07;;;23.90;38.80;;;;;;5072181;28;20215;-59
2021/08/26 09:12:22;;;;;;;7.18;5.60;;;23.90;38.50;;;;;;5072370;28;20240;-58
2021/08/26 09:14:48;;;;;;;7.82;6.40;;;23.90;38.40;;;;;;5073152;28;20197;-60
2021/08/26 09:17:15;;;;;;;6.95;6.00;;;23.90;38.70;;;;;;5073200;28;20201;-59
2021/08/26 09:19:43;;;;;;;7.63;6.07;;;23.90;38.70;;;;;;5072074;28;20220;-60
2021/08/26 09:22:09;;;;;;;7.82;6.15;;;23.90;38.90;;;;;;5068259;28;20209;-59
2021/08/26 09:24:36;;;;;;;8.77;6.53;;;23.80;38.90;;;;;;5072383;28;20193;-59
2021/08/26 09:27:02;;;;;;;7.10;6.38;;;23.80;38.90;;;;;;5072902;28;20665;-59
2021/08/26 09:29:29;;;;;;;8.25;6.97;;;23.80;38.90;;;;;;5072586;28;20336;-60
2021/08/26 09:31:56;;;;;;;9.35;6.85;;;23.80;38.80;;;;;;5073110;28;20254;-59
2021/08/26 09:34:22;;;;;;;7.97;6.43;;;23.80;38.70;;;;;;5065576;28;20255;-60
2021/08/26 09:36:49;;;;;;;7.28;6.50;;;23.80;38.70;;;;;;5072549;28;20212;-59
2021/08/26 09:39:15;;;;;;;7.45;5.95;;;23.80;38.90;;;;;;5082089;28;20224;-59
2021/08/26 09:41:42;;;;;;;7.10;5.88;;;23.80;39.10;;;;;;5069436;28;20208;-59
2021/08/26 09:44:08;;;;;;;7.60;6.30;;;23.80;38.90;;;;;;5060560;28;20208;-60
2021/08/26 09:46:35;;;;;;;9.40;6.97;;;23.80;38.90;;;;;;5070650;28;20280;-60
2021/08/26 09:49:01;;;;;;;7.50;6.43;;;23.80;39.00;;;;;;5072325;28;20689;-60
2021/08/26 09:51:28;;;;;;;10.38;7.70;;;23.80;39.00;;;;;;5071875;28;20221;-60
2021/08/26 09:53:54;;;;;;;7.88;6.10;;;23.80;39.10;;;;;;5068828;28;20193;-60
2021/08/26 09:56:20;;;;;;;8.15;6.88;;;23.80;39.40;;;;;;5068940;28;20213;-59
2021/08/26 09:58:47;;;;;;;8.85;6.95;;;23.80;39.20;;;;;;5072048;28;20217;-61
2021/08/26 10:01:14;;;;;;;8.65;5.65;;;23.80;39.10;;;;;;5069721;28;20205;-60
2021/08/26 10:03:41;;;;;;;8.25;6.80;;;23.80;39.00;;;;;;5072403;28;20277;-60
2021/08/26 10:06:07;;;;;;;7.68;6.40;;;23.80;39.20;;;;;;5071408;28;20201;-60
2021/08/26 10:08:34;;;;;;;7.50;5.72;;;23.80;39.20;;;;;;5071471;28;20287;-62
2021/08/26 10:11:00;;;;;;;8.82;6.70;;;23.80;39.30;;;;;;5052260;28;20281;-61
2021/08/26 10:13:27;;;;;;;7.43;5.85;;;23.80;39.30;;;;;;5052290;28;20229;-61
2021/08/26 10:15:53;;;;;;;6.72;6.07;;;23.80;39.30;;;;;;5066804;28;20291;-61
2021/08/26 10:18:20;;;;;;;8.40;5.68;;;23.80;39.30;;;;;;5071764;28;20225;-61
2021/08/26 10:20:46;;;;;;;7.97;6.03;;;23.80;39.40;;;;;;5066335;28;20203;-60
2021/08/26 10:23:12;;;;;;;7.30;6.00;;;23.80;39.40;;;;;;5061172;28;20759;-61
2021/08/26 10:25:39;;;;;;;8.10;5.90;;;23.80;39.50;;;;;;5067007;28;20679;-61
2021/08/26 10:28:05;;;;;;;6.97;5.72;;;23.80;39.50;;;;;;5071505;28;20313;-59
2021/08/26 10:30:32;;;;;;;6.97;6.03;;;23.80;39.40;;;;;;5071495;28;20207;-59
2021/08/26 10:32:58;;;;;;;7.47;5.40;;;23.80;39.50;;;;;;5071450;28;20233;-64
2021/08/26 10:35:25;;;;;;;11.35;6.10;;;23.90;39.50;;;;;;5071144;28;20197;-60
2021/08/26 10:37:53;;;;;;;8.52;5.38;;;23.90;39.30;;;;;;5071969;28;20227;-60
2021/08/26 10:40:19;;;;;;;11.13;5.63;;;23.90;39.40;;;;;;5070873;28;20217;-61
2021/08/26 10:42:46;;;;;;;9.45;5.53;;;23.90;39.60;;;;;;5071751;28;20616;-61
2021/08/26 10:45:12;;;;;;;11.88;6.22;;;24.00;39.80;;;;;;5071559;28;20307;-61
2021/08/26 10:47:39;;;;;;;7.93;5.70;;;23.90;39.60;;;;;;5068947;28;20239;-61
2021/08/26 10:50:05;;;;;;;8.85;5.65;;;23.90;39.50;;;;;;5066666;28;20209;-58
2021/08/26 10:52:31;;;;;;;13.57;6.25;;;23.90;39.50;;;;;;5070583;28;20268;-61
2021/08/26 10:54:58;;;;;;;8.15;5.38;;;23.90;39.60;;;;;;5068722;28;20201;-60
2021/08/26 10:57:24;;;;;;;7.90;5.05;;;23.90;39.50;;;;;;5069726;28;20213;-61
2021/08/26 10:59:51;;;;;;;8.98;4.65;;;23.90;39.50;;;;;;5069043;28;20279;-61
2021/08/26 11:02:18;;;;;;;7.50;4.68;;;23.90;39.50;;;;;;5069946;28;20217;-60
2021/08/26 11:04:45;;;;;;;8.20;5.25;;;23.90;39.40;;;;;;5064641;28;20723;-60
2021/08/26 11:07:11;;;;;;;5.22;4.30;;;23.80;39.20;;;;;;5070319;28;20221;-60
2021/08/26 11:09:38;;;;;;;5.68;5.05;;;23.80;39.10;;;;;;5067607;28;20207;-60
2021/08/26 11:12:04;;;;;;;5.88;4.38;;;23.80;39.10;;;;;;5063186;28;20217;-60
2021/08/26 11:14:31;;;;;;;6.93;4.70;;;23.80;39.10;;;;;;5070701;28;20204;-60
2021/08/26 11:16:57;;;;;;;7.22;4.45;;;23.80;39.00;;;;;;5070248;28;20214;-61
2021/08/26 11:19:23;;;;;;;5.90;4.32;;;23.80;39.00;;;;;;5064072;28;20265;-60
2021/08/26 11:21:50;;;;;;;5.40;3.85;;;23.80;38.90;;;;;;5059102;28;20587;-61
2021/08/26 11:24:16;;;;;;;5.88;3.60;;;23.80;38.80;;;;;;5065969;28;20201;-60
2021/08/26 11:26:43;;;;;;;4.55;3.78;;;23.80;38.70;;;;;;5058866;28;20210;-60
2021/08/26 11:29:09;;;;;;;7.10;3.60;;;23.80;38.60;;;;;;5057106;28;20210;-60
2021/08/26 11:31:36;;;;;;;5.40;4.20;;;23.80;38.50;;;;;;5066507;28;20205;-60
2021/08/26 11:34:02;;;;;;;5.68;4.20;;;23.70;38.40;;;;;;5054009;28;20326;-60
2021/08/26 11:36:29;;;;;;;4.82;4.20;;;23.70;38.40;;;;;;5079074;28;20231;-59
2021/08/26 11:38:55;;;;;;;6.80;3.63;;;23.70;38.60;;;;;;5074297;28;20319;-59
2021/08/26 11:41:22;;;;;;;5.10;3.63;;;23.70;38.50;;;;;;5070772;28;20282;-59
2021/08/26 11:43:48;;;;;;;3.47;3.17;;;23.80;39.00;;;;;;5072561;28;20197;-60
2021/08/26 11:46:15;;;;;;;4.13;3.40;;;23.90;39.00;;;;;;5068049;28;20217;-59
2021/08/26 11:48:41;;;;;;;4.00;3.20;;;23.90;39.10;;;;;;5072834;28;20221;-60
2021/08/26 11:51:08;;;;;;;5.07;3.50;;;23.90;39.10;;;;;;5064938;28;20197;-59
2021/08/26 11:53:34;;;;;;;3.50;3.00;;;23.90;39.10;;;;;;5073700;28;20239;-60
2021/08/26 11:56:00;;;;;;;4.15;3.25;;;23.90;39.10;;;;;;5069962;28;20205;-60
2021/08/26 11:58:27;;;;;;;4.75;3.35;;;24.00;39.20;;;;;;5068321;28;20217;-60
2021/08/26 12:00:54;;;;;;;4.45;3.33;;;24.00;39.30;;;;;;5064186;28;20197;-60
2021/08/26 12:03:21;;;;;;;3.35;3.05;;;24.00;39.30;;;;;;5074029;28;20197;-59
2021/08/26 12:05:47;;;;;;;4.85;3.50;;;24.00;39.40;;;;;;5073518;28;20225;-59
2021/08/26 12:08:14;;;;;;;4.15;3.15;;;24.00;39.40;;;;;;5072727;28;20224;-60
2021/08/26 12:10:43;;;;;;;3.28;2.97;;;24.00;39.40;;;;;;5066559;28;20201;-59
2021/08/26 12:13:09;;;;;;;3.45;3.15;;;24.00;39.40;;;;;;5071254;28;20235;-58
2021/08/26 12:15:36;;;;;;;3.83;3.38;;;24.00;39.40;;;;;;5071756;28;20197;-60
2021/08/26 12:18:02;;;;;;;3.75;3.22;;;24.00;39.40;;;;;;5072551;28;20225;-60
2021/08/26 12:20:29;;;;;;;4.03;3.25;;;24.00;39.50;;;;;;5072846;28;20236;-60
2021/08/26 12:22:56;;;;;;;4.13;3.60;;;24.00;39.50;;;;;;5074044;28;20593;-54
2021/08/26 12:25:22;;;;;;;5.70;4.55;;;24.00;39.50;;;;;;5059218;28;20201;-56
2021/08/26 12:27:48;;;;;;;6.53;4.75;;;23.90;39.20;;;;;;5068076;28;20228;-58
2021/08/26 12:30:15;;;;;;;6.57;4.80;;;23.80;39.20;;;;;;5071593;28;20204;-54
2021/08/26 12:32:41;;;;;;;6.43;5.40;;;23.70;39.30;;;;;;5056611;28;20236;-54
2021/08/26 12:35:08;;;;;;;5.13;4.63;;;23.70;39.40;;;;;;5073558;28;20212;-55
2021/08/26 12:37:34;;;;;;;5.38;4.65;;;23.60;39.60;;;;;;5063784;28;20221;-56
2021/08/26 12:40:01;;;;;;;5.22;4.30;;;23.50;39.70;;;;;;5072543;28;20225;-56
2021/08/26 12:42:27;;;;;;;6.68;5.15;;;23.50;39.80;;;;;;5072980;28;20201;-58
2021/08/26 12:44:54;;;;;;;4.80;4.30;;;23.50;39.90;;;;;;5072576;28;20212;-54
2021/08/26 12:47:20;;;;;;;4.60;3.83;;;23.50;40.00;;;;;;5064784;28;20665;-55